Southwark, United Kingdom
Current Conditions -  °F | °C
As of 8:50 PM on Saturday 25 Oct 2014 (Local Time) from EGLC Reporting Station
Clear Clear  
Wind Chill: 55°   Ceiling: Unl
Heat Index: 55°   Visibility: 6mi
Dew Point: 45°   Wind: 6mph
Humidity: 67%   Direction: 240°WSW
Pressure: 30.12"   Gusts: NA
Location:  51.46°N, 0.07°W
Report Text: EGLC 251950Z AUTO 24005KT 9999 NCD 13/07 Q1020
Loading
Personal Weather Stations






























Interactive Weather Map
Tropical Storm Tracking
New forecast layout! Learn more

10-Day Weather Forecast

Advertisements
Track Severe Weather on mobile